Buxton, North Carolina
Current Conditions -  °F | °C
As of 12:51 AM on Friday 28 Nov 2014 (Local Time) from KHSE Reporting Station
Few Clouds Few Clouds  
Wind Chill: 37°   Ceiling: Unl
Heat Index: 42°   Visibility: 10mi
Dew Point: 34°   Wind: 9mph
Humidity: 73%   Direction: 330°NNW
Pressure: 30.16"   Gusts: 22mph
Location:  35.27°N, 75.54°W
Report Text: KHSE 280551Z AUTO 33008G19KT 310V010 10SM FEW025 06/01 A3016 RMK AO2 SLP212 T00560011 10078 20056 50006 TSNO
Loading
Personal Weather Stations






























Interactive Weather Map New forecast layout! Learn more

10-Day Weather Forecast

Advertisements
Track Severe Weather on mobile